createdAt,value
2018-07-09T00:02:13.504Z,23.09
2018-07-09T00:04:40.963Z,23.06
2018-07-09T00:07:08.406Z,23.01
2018-07-09T00:09:35.880Z,22.96
2018-07-09T00:12:03.286Z,22.97
2018-07-09T00:14:30.725Z,22.98
2018-07-09T00:16:58.114Z,22.91
2018-07-09T00:19:25.572Z,22.94
2018-07-09T00:21:52.998Z,22.85
2018-07-09T00:24:20.406Z,22.80
2018-07-09T00:26:47.819Z,22.77
2018-07-09T00:29:15.267Z,22.69
2018-07-09T00:31:42.726Z,22.72
2018-07-09T00:34:10.175Z,22.71
2018-07-09T00:36:37.638Z,22.69
2018-07-09T00:39:05.079Z,22.66
2018-07-09T00:41:32.490Z,22.57
2018-07-09T00:43:59.898Z,22.55
2018-07-09T00:46:27.405Z,22.52
2018-07-09T00:48:54.812Z,22.39
2018-07-09T00:51:22.237Z,22.39
2018-07-09T00:53:49.659Z,22.41
2018-07-09T00:56:17.161Z,22.28
2018-07-09T00:58:44.652Z,22.14
2018-07-09T01:01:12.097Z,22.10
2018-07-09T01:03:39.492Z,22.07
2018-07-09T01:06:06.938Z,22.10
2018-07-09T01:08:34.358Z,22.08
2018-07-09T01:11:03.761Z,22.09
2018-07-09T01:13:31.188Z,22.12
2018-07-09T01:15:58.642Z,22.10
2018-07-09T01:18:26.114Z,22.11
2018-07-09T01:20:53.603Z,22.09
2018-07-09T01:23:21.068Z,22.06
2018-07-09T01:25:48.521Z,22.09
2018-07-09T01:28:15.980Z,22.11
2018-07-09T01:30:43.419Z,22.08
2018-07-09T01:33:10.858Z,21.98
2018-07-09T01:35:38.264Z,21.98
2018-07-09T01:38:05.732Z,21.81
2018-07-09T01:40:33.185Z,21.80
2018-07-09T01:43:00.634Z,21.68
2018-07-09T01:45:28.082Z,21.67
2018-07-09T01:47:55.550Z,21.67
2018-07-09T01:50:22.949Z,21.55
2018-07-09T01:52:50.386Z,21.57
2018-07-09T01:55:17.857Z,21.58
2018-07-09T01:57:45.301Z,21.54
2018-07-09T02:00:12.745Z,21.56
2018-07-09T02:02:40.177Z,21.57
2018-07-09T02:05:07.684Z,21.47
2018-07-09T02:07:35.113Z,21.44
2018-07-09T02:10:02.561Z,21.45
2018-07-09T02:12:29.963Z,21.26
2018-07-09T02:14:57.403Z,21.20
2018-07-09T02:17:24.839Z,21.11
2018-07-09T02:19:52.277Z,20.86
2018-07-09T02:22:19.715Z,20.66
2018-07-09T02:24:47.154Z,20.61
2018-07-09T02:27:14.929Z,20.68
2018-07-09T02:29:43.133Z,20.63
2018-07-09T02:32:10.611Z,20.68
2018-07-09T02:34:38.164Z,20.77
2018-07-09T02:37:05.595Z,20.87
2018-07-09T02:39:33.086Z,20.91
2018-07-09T02:42:00.588Z,20.95
2018-07-09T02:44:27.980Z,20.85
2018-07-09T02:46:55.397Z,20.66
2018-07-09T02:49:22.803Z,20.54
2018-07-09T02:51:50.243Z,20.58
2018-07-09T02:54:17.693Z,20.59
2018-07-09T02:56:45.879Z,20.65
2018-07-09T02:59:13.291Z,20.54
2018-07-09T03:01:40.756Z,20.45
2018-07-09T03:04:08.213Z,20.39
2018-07-09T03:06:35.702Z,20.43
2018-07-09T03:09:03.130Z,20.53
2018-07-09T03:11:30.642Z,20.58
2018-07-09T03:13:58.070Z,20.63
2018-07-09T03:16:25.521Z,20.70
2018-07-09T03:18:53.021Z,20.73
2018-07-09T03:21:20.417Z,20.73
2018-07-09T03:23:47.821Z,20.67
2018-07-09T03:26:15.261Z,20.64
2018-07-09T03:28:42.718Z,20.56
2018-07-09T03:31:10.143Z,20.43
2018-07-09T03:33:37.564Z,20.22
2018-07-09T03:36:05.044Z,20.20
2018-07-09T03:38:32.494Z,20.30
2018-07-09T03:40:59.931Z,20.36
2018-07-09T03:43:27.403Z,20.29
2018-07-09T03:45:54.871Z,20.27
2018-07-09T03:48:22.497Z,20.31
2018-07-09T03:50:49.890Z,20.25
2018-07-09T03:53:17.379Z,20.25
2018-07-09T03:55:44.773Z,20.30
2018-07-09T03:58:12.250Z,20.38
2018-07-09T04:00:39.708Z,20.50
2018-07-09T04:03:07.164Z,20.55
2018-07-09T04:05:34.617Z,20.48
2018-07-09T04:08:02.085Z,20.54
2018-07-09T04:10:29.547Z,20.51
2018-07-09T04:12:56.981Z,20.45
2018-07-09T04:15:24.430Z,20.42
2018-07-09T04:17:51.895Z,20.42
2018-07-09T04:20:19.299Z,20.46
2018-07-09T04:22:46.788Z,20.51
2018-07-09T04:25:14.265Z,20.51
2018-07-09T04:27:41.699Z,20.61
2018-07-09T04:30:09.115Z,20.57
2018-07-09T04:32:37.396Z,20.66
2018-07-09T04:35:04.843Z,20.67
2018-07-09T04:37:32.258Z,20.71
2018-07-09T04:39:59.667Z,20.82
2018-07-09T04:42:27.090Z,20.87
2018-07-09T04:44:54.547Z,20.90
2018-07-09T04:47:21.945Z,20.96
2018-07-09T04:49:49.350Z,20.95
2018-07-09T04:52:16.855Z,21.02
2018-07-09T04:54:44.274Z,21.11
2018-07-09T04:57:11.676Z,21.21
2018-07-09T04:59:39.169Z,21.30
2018-07-09T05:02:06.598Z,21.41
2018-07-09T05:04:34.016Z,21.53
2018-07-09T05:07:01.505Z,21.50
2018-07-09T05:09:28.971Z,21.57
2018-07-09T05:11:56.398Z,21.66
2018-07-09T05:14:23.822Z,21.84
2018-07-09T05:16:51.283Z,21.97
2018-07-09T05:19:18.726Z,22.05
2018-07-09T05:21:47.214Z,22.05
2018-07-09T05:24:14.724Z,22.08
2018-07-09T05:26:42.196Z,22.12
2018-07-09T05:29:09.950Z,22.16
2018-07-09T05:31:37.428Z,22.13
2018-07-09T05:34:04.904Z,22.11
2018-07-09T05:36:32.378Z,22.18
2018-07-09T05:39:00.041Z,22.28
2018-07-09T05:41:27.510Z,22.31
2018-07-09T05:43:54.972Z,22.48
2018-07-09T05:46:22.388Z,22.56
2018-07-09T05:48:49.951Z,22.66
2018-07-09T05:51:17.421Z,22.75
2018-07-09T05:53:44.850Z,22.95
2018-07-09T05:56:12.328Z,23.25
2018-07-09T05:58:39.843Z,23.49
2018-07-09T06:01:07.275Z,23.67
2018-07-09T06:03:34.834Z,23.84
2018-07-09T06:06:02.316Z,23.91
2018-07-09T06:08:29.801Z,23.89
2018-07-09T06:10:57.283Z,23.74
2018-07-09T06:13:24.780Z,23.67
2018-07-09T06:15:52.339Z,23.68
2018-07-09T06:18:19.764Z,23.61
2018-07-09T06:20:47.248Z,23.60
2018-07-09T06:23:14.696Z,23.71
2018-07-09T06:25:42.118Z,23.59
2018-07-09T06:28:09.591Z,23.58
2018-07-09T06:30:37.030Z,23.52
2018-07-09T06:33:04.508Z,23.46
2018-07-09T06:35:31.984Z,23.76
2018-07-09T06:37:59.476Z,23.97
2018-07-09T06:40:26.924Z,23.98
2018-07-09T06:42:55.181Z,23.94
2018-07-09T06:45:22.693Z,24.10
2018-07-09T06:47:50.487Z,24.34
2018-07-09T06:50:17.931Z,24.29
2018-07-09T06:52:45.436Z,24.31
2018-07-09T06:55:13.050Z,24.35
2018-07-09T06:57:40.543Z,24.58
2018-07-09T07:00:07.995Z,24.89
2018-07-09T07:02:35.505Z,24.95
2018-07-09T07:05:02.979Z,24.87
2018-07-09T07:07:30.370Z,24.85
2018-07-09T07:09:57.877Z,25.08
2018-07-09T07:12:25.424Z,25.31
2018-07-09T07:14:52.892Z,25.42
2018-07-09T07:17:20.367Z,25.28
2018-07-09T07:19:47.853Z,25.48
2018-07-09T07:22:15.278Z,25.75
2018-07-09T07:24:42.721Z,25.65
2018-07-09T07:27:10.127Z,25.55
2018-07-09T07:29:37.643Z,25.66
2018-07-09T07:32:05.056Z,26.13
2018-07-09T07:34:32.585Z,26.15
2018-07-09T07:37:00.051Z,26.44
2018-07-09T07:39:27.574Z,26.73
2018-07-09T07:41:54.971Z,26.79
2018-07-09T07:44:22.484Z,26.59
2018-07-09T07:46:50.070Z,26.92
2018-07-09T07:49:17.555Z,27.25
2018-07-09T07:51:45.007Z,27.59
2018-07-09T07:54:12.458Z,27.90
2018-07-09T07:56:39.851Z,28.04
2018-07-09T07:59:07.344Z,28.35
2018-07-09T08:01:34.814Z,28.26
2018-07-09T08:04:02.320Z,28.46
2018-07-09T08:06:29.729Z,28.92
2018-07-09T08:08:57.217Z,29.13
2018-07-09T08:11:47.728Z,29.45
2018-07-09T08:13:52.216Z,29.25
2018-07-09T08:16:19.788Z,29.20
2018-07-09T08:18:47.252Z,29.25
2018-07-09T08:21:14.690Z,29.01
2018-07-09T08:23:42.138Z,28.69
2018-07-09T08:26:09.605Z,28.59
2018-07-09T08:28:37.083Z,28.46
2018-07-09T08:31:04.497Z,28.40
2018-07-09T08:33:31.881Z,28.71
2018-07-09T08:35:59.394Z,28.80
2018-07-09T08:38:26.843Z,28.86
2018-07-09T08:40:54.259Z,29.07
2018-07-09T08:43:21.822Z,28.95
2018-07-09T08:45:49.279Z,28.75
2018-07-09T08:48:16.727Z,28.89
2018-07-09T08:50:44.261Z,28.98
2018-07-09T08:53:11.713Z,28.86
2018-07-09T08:55:39.139Z,28.43
2018-07-09T08:58:06.596Z,28.41
2018-07-09T09:00:34.168Z,28.58
2018-07-09T09:03:01.662Z,28.40
2018-07-09T09:05:29.227Z,28.59
2018-07-09T09:07:56.619Z,28.39
2018-07-09T09:10:24.092Z,28.28
2018-07-09T09:12:51.579Z,28.39
2018-07-09T09:15:19.028Z,28.70
2018-07-09T09:17:46.137Z,29.02
2018-07-09T09:20:13.714Z,29.09
2018-07-09T09:22:41.156Z,28.76
2018-07-09T09:25:09.090Z,28.81
2018-07-09T09:27:36.572Z,28.81
2018-07-09T09:30:04.075Z,29.17
2018-07-09T09:32:31.561Z,29.15
2018-07-09T09:34:58.991Z,29.16
2018-07-09T09:37:26.472Z,29.40
2018-07-09T09:39:53.508Z,29.46
2018-07-09T09:42:20.508Z,29.66
2018-07-09T09:44:47.953Z,29.73
2018-07-09T09:47:15.450Z,29.63
2018-07-09T09:49:43.426Z,29.63
2018-07-09T09:52:10.884Z,29.63
2018-07-09T09:54:38.441Z,29.78
2018-07-09T09:57:05.911Z,29.94
2018-07-09T09:59:33.396Z,29.97
2018-07-09T10:02:00.831Z,29.92
2018-07-09T10:04:28.245Z,29.79
2018-07-09T10:06:55.687Z,29.84
2018-07-09T10:09:23.422Z,29.73
2018-07-09T10:11:50.913Z,29.68
2018-07-09T10:14:18.355Z,30.22
2018-07-09T10:16:45.865Z,30.40
2018-07-09T10:19:13.285Z,30.00
2018-07-09T10:21:40.783Z,29.80
2018-07-09T10:24:08.246Z,30.09
2018-07-09T10:26:35.854Z,30.47
2018-07-09T10:29:03.316Z,30.44
2018-07-09T10:31:30.299Z,30.74
2018-07-09T10:33:57.775Z,30.76
2018-07-09T10:36:25.228Z,30.56
2018-07-09T10:38:52.685Z,30.60
2018-07-09T10:41:19.700Z,30.74
2018-07-09T10:43:46.728Z,30.88
2018-07-09T10:46:14.203Z,31.15
2018-07-09T10:48:41.695Z,30.96
2018-07-09T10:51:08.732Z,30.76
2018-07-09T10:53:36.165Z,30.63
2018-07-09T10:56:03.668Z,30.69
2018-07-09T10:58:30.685Z,30.80
2018-07-09T11:00:58.032Z,31.14
2018-07-09T11:03:25.560Z,31.29
2018-07-09T11:05:53.243Z,31.41
2018-07-09T11:08:20.744Z,31.57
2018-07-09T11:10:48.275Z,31.57
2018-07-09T11:13:15.778Z,31.65
2018-07-09T11:15:43.274Z,31.52
2018-07-09T11:18:10.831Z,31.75
2018-07-09T11:20:38.316Z,31.77
2018-07-09T11:23:05.794Z,31.42
2018-07-09T11:25:33.367Z,31.60
2018-07-09T11:28:00.889Z,31.74
2018-07-09T11:30:28.494Z,31.99
2018-07-09T11:32:56.507Z,31.86
2018-07-09T11:35:24.019Z,31.64
2018-07-09T11:37:51.469Z,31.55
2018-07-09T11:40:18.952Z,31.66
2018-07-09T11:42:46.393Z,31.72
2018-07-09T11:45:13.833Z,31.73
2018-07-09T11:47:41.351Z,31.61
2018-07-09T11:50:09.313Z,31.57
2018-07-09T11:52:36.720Z,31.57
2018-07-09T11:55:04.167Z,31.85
2018-07-09T11:57:31.649Z,31.71
2018-07-09T11:59:59.135Z,32.10
2018-07-09T12:02:26.678Z,31.97
2018-07-09T12:04:54.139Z,31.89
2018-07-09T12:07:21.591Z,32.05
2018-07-09T12:09:49.061Z,32.03
2018-07-09T12:12:16.548Z,31.98
2018-07-09T12:14:44.072Z,31.84
2018-07-09T12:17:11.566Z,32.01
2018-07-09T12:19:39.108Z,32.33
2018-07-09T12:22:06.528Z,32.41
2018-07-09T12:24:33.963Z,32.51
2018-07-09T12:27:01.416Z,32.33
2018-07-09T12:29:28.929Z,32.22
2018-07-09T12:31:56.617Z,32.02
2018-07-09T12:34:24.065Z,32.04
2018-07-09T12:36:51.560Z,32.16
2018-07-09T12:39:19.088Z,32.31
2018-07-09T12:41:46.580Z,32.56
2018-07-09T12:44:14.031Z,32.82
2018-07-09T12:46:41.550Z,32.64
2018-07-09T12:49:08.998Z,32.78
2018-07-09T12:51:36.500Z,32.82
2018-07-09T12:54:05.099Z,32.82
2018-07-09T12:56:32.571Z,33.04
2018-07-09T12:59:00.089Z,33.21
2018-07-09T13:01:27.572Z,33.21
2018-07-09T13:03:54.998Z,33.44
2018-07-09T13:06:22.443Z,33.61
2018-07-09T13:08:49.860Z,33.19
2018-07-09T13:11:17.429Z,32.69
2018-07-09T13:13:44.895Z,32.64
2018-07-09T13:16:12.398Z,32.76
2018-07-09T13:18:39.914Z,32.80
2018-07-09T13:21:07.465Z,32.93
2018-07-09T13:23:35.012Z,33.03
2018-07-09T13:26:02.673Z,32.73
2018-07-09T13:28:30.130Z,32.59
2018-07-09T13:30:57.661Z,32.25
2018-07-09T13:33:25.052Z,32.54
2018-07-09T13:35:52.505Z,32.94
2018-07-09T13:38:19.976Z,32.83
2018-07-09T13:40:47.427Z,32.57
2018-07-09T13:43:14.976Z,32.47
2018-07-09T13:45:42.431Z,32.72
2018-07-09T13:48:09.863Z,32.94
2018-07-09T13:50:37.301Z,32.87
2018-07-09T13:53:04.771Z,32.78
2018-07-09T13:55:32.220Z,32.88
2018-07-09T13:57:59.847Z,33.05
2018-07-09T14:00:27.318Z,33.04
2018-07-09T14:02:54.883Z,33.30
2018-07-09T14:05:22.405Z,33.27
2018-07-09T14:07:49.824Z,33.16
2018-07-09T14:10:17.351Z,33.14
2018-07-09T14:12:44.816Z,33.12
2018-07-09T14:15:12.304Z,32.95
2018-07-09T14:17:39.785Z,32.99
2018-07-09T14:20:26.125Z,32.90
2018-07-09T14:22:53.603Z,32.92
2018-07-09T14:25:21.108Z,32.98
2018-07-09T14:27:48.543Z,32.94
2018-07-09T14:30:15.955Z,33.07
2018-07-09T14:32:43.693Z,33.09
2018-07-09T14:35:11.220Z,32.99
2018-07-09T14:37:38.736Z,33.20
2018-07-09T14:40:06.186Z,33.20
2018-07-09T14:42:33.659Z,33.18
2018-07-09T14:45:01.121Z,33.25
2018-07-09T14:47:28.556Z,33.15
2018-07-09T14:49:56.097Z,32.67
2018-07-09T14:52:23.559Z,32.44
2018-07-09T14:54:51.157Z,32.60
2018-07-09T14:57:18.622Z,33.00
2018-07-09T14:59:46.049Z,33.01
2018-07-09T15:02:13.659Z,32.90
2018-07-09T15:04:41.160Z,32.87
2018-07-09T15:07:08.640Z,32.72
2018-07-09T15:09:36.159Z,32.69
2018-07-09T15:12:03.617Z,32.34
2018-07-09T15:14:31.075Z,32.37
2018-07-09T15:16:58.512Z,32.57
2018-07-09T15:19:25.998Z,32.74
2018-07-09T15:21:53.789Z,32.74
2018-07-09T15:24:21.260Z,32.78
2018-07-09T15:26:48.874Z,32.60
2018-07-09T15:29:16.355Z,32.58
2018-07-09T15:31:43.803Z,32.68
2018-07-09T15:34:11.292Z,32.59
2018-07-09T15:36:38.916Z,32.33
2018-07-09T15:39:06.419Z,32.24
2018-07-09T15:41:33.876Z,32.29
2018-07-09T15:44:01.321Z,32.34
2018-07-09T15:46:28.767Z,32.20
2018-07-09T15:48:56.214Z,32.20
2018-07-09T15:51:23.724Z,32.23
2018-07-09T15:53:51.243Z,32.16
2018-07-09T15:56:18.724Z,32.11
2018-07-09T15:58:46.178Z,32.32
2018-07-09T16:01:13.627Z,32.30
2018-07-09T16:03:41.080Z,32.12
2018-07-09T16:06:08.605Z,32.05
2018-07-09T16:08:36.048Z,32.09
2018-07-09T16:11:03.490Z,32.20
2018-07-09T16:13:30.929Z,32.01
2018-07-09T16:15:58.406Z,32.10
2018-07-09T16:18:25.885Z,32.11
2018-07-09T16:20:53.495Z,32.17
2018-07-09T16:23:20.979Z,32.19
2018-07-09T16:25:48.464Z,31.94
2018-07-09T16:28:15.904Z,31.96
2018-07-09T16:30:43.358Z,31.94
2018-07-09T16:33:10.841Z,32.00
2018-07-09T16:35:38.283Z,31.93
2018-07-09T16:38:05.689Z,31.87
2018-07-09T16:40:33.159Z,31.86
2018-07-09T16:43:00.593Z,31.84
2018-07-09T16:45:28.078Z,31.86
2018-07-09T16:47:55.651Z,31.81
2018-07-09T16:50:23.176Z,31.83
2018-07-09T16:52:50.655Z,31.86
2018-07-09T16:55:18.313Z,31.90
2018-07-09T16:57:45.759Z,31.90
2018-07-09T17:00:13.317Z,32.07
2018-07-09T17:02:40.844Z,32.04
2018-07-09T17:05:08.307Z,31.93
2018-07-09T17:07:35.767Z,31.68
2018-07-09T17:10:03.243Z,31.77
2018-07-09T17:12:30.700Z,31.78
2018-07-09T17:14:58.172Z,31.80
2018-07-09T17:17:25.716Z,31.75
2018-07-09T17:19:53.170Z,31.77
2018-07-09T17:22:20.645Z,31.77
2018-07-09T17:24:48.184Z,31.69
2018-07-09T17:27:15.794Z,31.64
2018-07-09T17:29:43.257Z,31.59
2018-07-09T17:32:10.763Z,31.58
2018-07-09T17:34:38.191Z,31.62
2018-07-09T17:37:05.613Z,31.60
2018-07-09T17:39:33.031Z,31.52
2018-07-09T17:42:00.564Z,31.43
2018-07-09T17:44:28.044Z,31.45
2018-07-09T17:46:55.692Z,31.49
2018-07-09T17:49:23.238Z,31.41
2018-07-09T17:51:50.732Z,31.31
2018-07-09T17:54:18.222Z,31.20
2018-07-09T17:56:45.651Z,31.18
2018-07-09T17:59:13.103Z,30.86
2018-07-09T18:01:40.587Z,30.62
2018-07-09T18:04:08.158Z,30.40
2018-07-09T18:06:35.590Z,30.20
2018-07-09T18:09:03.116Z,30.05
2018-07-09T18:11:30.560Z,29.95
2018-07-09T18:13:58.069Z,29.86
2018-07-09T18:16:25.494Z,29.88
2018-07-09T18:18:52.984Z,29.96
2018-07-09T18:21:20.510Z,30.07
2018-07-09T18:23:47.964Z,30.22
2018-07-09T18:26:15.512Z,30.21
2018-07-09T18:28:42.979Z,30.17
2018-07-09T18:31:10.406Z,29.98
2018-07-09T18:33:37.875Z,29.95
2018-07-09T18:36:05.337Z,29.80
2018-07-09T18:38:32.886Z,29.80
2018-07-09T18:41:00.313Z,29.69
2018-07-09T18:43:27.782Z,29.53
2018-07-09T18:45:55.228Z,29.40
2018-07-09T18:48:22.999Z,29.25
2018-07-09T18:50:50.560Z,29.16
2018-07-09T18:53:17.950Z,29.13
2018-07-09T18:55:45.405Z,29.03
2018-07-09T18:58:12.935Z,28.97
2018-07-09T19:00:40.360Z,28.83
2018-07-09T19:03:07.899Z,28.81
2018-07-09T19:05:35.387Z,28.69
2018-07-09T19:08:02.865Z,28.56
2018-07-09T19:10:30.367Z,28.43
2018-07-09T19:12:57.789Z,28.36
2018-07-09T19:15:25.491Z,28.29
2018-07-09T19:17:53.001Z,28.19
2018-07-09T19:20:32.240Z,28.12
2018-07-09T19:22:59.207Z,28.07
2018-07-09T19:25:26.100Z,27.95
2018-07-09T19:27:53.038Z,27.89
2018-07-09T19:30:19.929Z,27.89
2018-07-09T19:32:46.791Z,27.84
2018-07-09T19:35:13.735Z,27.72
2018-07-09T19:37:40.819Z,27.63
2018-07-09T19:40:07.607Z,27.52
2018-07-09T19:42:34.683Z,27.50
2018-07-09T19:45:01.613Z,27.51
2018-07-09T19:47:28.535Z,27.44
2018-07-09T19:49:55.451Z,27.41
2018-07-09T19:52:22.394Z,27.40
2018-07-09T19:54:49.296Z,27.38
2018-07-09T19:57:16.194Z,27.33
2018-07-09T19:59:43.135Z,27.26
2018-07-09T20:02:10.029Z,27.19
2018-07-09T20:04:36.928Z,27.07
2018-07-09T20:07:03.840Z,26.99
2018-07-09T20:09:30.774Z,26.98
2018-07-09T20:11:57.702Z,26.97
2018-07-09T20:17:16.295Z,27.15
2018-07-09T20:19:43.289Z,27.08
2018-07-09T20:22:10.269Z,27.00
2018-07-09T20:24:37.270Z,27.01
2018-07-09T20:27:04.256Z,26.94
2018-07-09T20:29:31.198Z,26.83
2018-07-09T20:31:58.138Z,26.78
2018-07-09T20:34:25.022Z,26.65
2018-07-09T20:36:51.965Z,26.35
2018-07-09T20:39:18.854Z,26.18
2018-07-09T20:41:45.776Z,26.12
2018-07-09T20:44:12.721Z,26.06
2018-07-09T20:46:39.673Z,25.96
2018-07-09T20:49:06.602Z,25.90
2018-07-09T20:51:33.622Z,25.94
2018-07-09T20:54:00.624Z,25.97
2018-07-09T20:56:27.639Z,25.98
2018-07-09T20:58:54.611Z,26.00
2018-07-09T21:01:21.513Z,25.98
2018-07-09T21:03:48.480Z,25.89
2018-07-09T21:06:15.568Z,25.85
2018-07-09T21:08:42.467Z,25.86
2018-07-09T21:11:09.432Z,25.87
2018-07-09T21:13:36.459Z,25.87
2018-07-09T21:16:03.595Z,25.86
2018-07-09T21:18:30.393Z,25.77
2018-07-09T21:20:57.491Z,25.70
2018-07-09T21:23:24.453Z,25.70
2018-07-09T21:25:51.354Z,25.60
2018-07-09T21:28:18.267Z,25.55
2018-07-09T21:30:45.212Z,25.50
2018-07-09T21:33:12.370Z,25.44
2018-07-09T21:35:39.308Z,25.37
2018-07-09T21:38:06.435Z,25.38
2018-07-09T21:40:33.257Z,25.43
2018-07-09T21:43:00.193Z,25.38
2018-07-09T21:45:27.131Z,25.31
2018-07-09T21:47:59.221Z,25.23
2018-07-09T21:50:20.935Z,25.19
2018-07-09T21:52:47.848Z,25.17
2018-07-09T21:55:14.817Z,25.17
2018-07-09T21:57:41.833Z,25.23
2018-07-09T22:00:08.729Z,25.25
2018-07-09T22:02:35.739Z,25.22
2018-07-09T22:05:04.499Z,25.16
2018-07-09T22:07:47.505Z,25.09
2018-07-09T22:10:14.745Z,24.99
2018-07-09T22:12:42.780Z,24.91
2018-07-09T22:15:10.495Z,24.86
2018-07-09T22:17:38.334Z,24.86
2018-07-09T22:20:05.818Z,24.87
2018-07-09T22:22:32.907Z,24.89
2018-07-09T22:24:59.864Z,24.86
2018-07-09T22:27:26.785Z,24.82
2018-07-09T22:29:53.742Z,24.80
2018-07-09T22:32:21.242Z,24.81
2018-07-09T22:34:48.706Z,24.76
2018-07-09T22:37:16.188Z,24.72
2018-07-09T22:39:43.687Z,24.64
2018-07-09T22:42:11.108Z,24.61
2018-07-09T22:44:38.568Z,24.61
2018-07-09T22:47:06.125Z,24.58
2018-07-09T22:49:33.587Z,24.54
2018-07-09T22:52:01.047Z,24.51
2018-07-09T22:54:28.569Z,24.48
2018-07-09T22:56:55.996Z,24.49
2018-07-09T22:59:23.453Z,24.48
2018-07-09T23:01:50.984Z,24.45
2018-07-09T23:04:18.487Z,24.38
2018-07-09T23:06:45.968Z,24.40
2018-07-09T23:09:13.500Z,24.39
2018-07-09T23:11:40.931Z,24.33
2018-07-09T23:14:08.542Z,24.31
2018-07-09T23:19:34.885Z,24.47
2018-07-09T23:22:02.350Z,24.43
2018-07-09T23:24:29.252Z,24.33
2018-07-09T23:26:56.124Z,24.23
2018-07-09T23:29:23.133Z,24.13
2018-07-09T23:31:50.107Z,24.04
2018-07-09T23:34:17.304Z,24.01
2018-07-09T23:36:44.212Z,23.95
2018-07-09T23:39:11.098Z,23.92
2018-07-09T23:41:37.996Z,23.89
2018-07-09T23:44:04.919Z,23.82
2018-07-09T23:46:31.865Z,23.78
2018-07-09T23:48:58.767Z,23.78
2018-07-09T23:51:25.639Z,23.76
2018-07-09T23:53:52.530Z,23.74
2018-07-09T23:56:20.037Z,23.71
2018-07-09T23:58:47.517Z,23.73
